Terminal Aerodrome Forecast
Issued by NWS Newport/Morehead City, NC

Home | Current Version | Previous Version | Graphics & Text | Print | Product List | Glossary On
Versions: 1 2 3 4 5 6 7 8 9 10 11 12 13 14 15 16
577
FTUS42 KMHX 301142 AAB
TAFEWN
TAF AMD
KEWN 301142Z 3012/0112 13005KT P6SM VCSH SCT030 BKN150
     FM302100 18008KT P6SM BKN090
     FM010200 17005KT P6SM SCT070
     FM010800 00000KT 3SM BR BKN060=

USA.gov is the U.S. government's official web portal to all federal, state and local government web resources and services.